createdAt,value
2018-02-14T00:00:25.638Z,22.47
2018-02-14T00:02:53.272Z,24.00
2018-02-14T00:05:20.733Z,23.50
2018-02-14T00:07:48.383Z,22.83
2018-02-14T00:10:15.854Z,23.53
2018-02-14T00:12:43.308Z,24.13
2018-02-14T00:15:10.789Z,22.07
2018-02-14T00:17:38.253Z,24.13
2018-02-14T00:20:05.727Z,24.13
2018-02-14T00:22:33.246Z,25.50
2018-02-14T00:25:01.097Z,25.00
2018-02-14T00:27:28.653Z,23.10
2018-02-14T00:29:56.126Z,23.17
2018-02-14T00:32:23.581Z,23.83
2018-02-14T00:34:51.054Z,21.70
2018-02-14T00:37:18.531Z,24.00
2018-02-14T00:39:45.989Z,26.37
2018-02-14T00:42:13.474Z,25.30
2018-02-14T00:44:40.933Z,20.50
2018-02-14T00:47:08.894Z,19.87
2018-02-14T00:49:36.360Z,21.63
2018-02-14T00:52:03.822Z,25.03
2018-02-14T00:54:31.405Z,23.30
2018-02-14T00:56:58.890Z,19.90
2018-02-14T00:59:26.553Z,18.00
2018-02-14T01:01:54.017Z,18.17
2018-02-14T01:04:21.484Z,17.03
2018-02-14T01:06:48.956Z,19.23
2018-02-14T01:09:16.462Z,20.40
2018-02-14T01:14:23.626Z,22.60
2018-02-14T01:16:51.103Z,20.77
2018-02-14T01:19:18.582Z,22.40
2018-02-14T01:21:49.857Z,19.60
2018-02-14T01:24:17.345Z,19.97
2018-02-14T01:26:44.819Z,22.50
2018-02-14T01:29:12.391Z,18.67
2018-02-14T01:31:40.262Z,18.80
2018-02-14T01:34:08.087Z,20.93
2018-02-14T01:36:35.550Z,18.53
2018-02-14T01:39:03.063Z,20.00
2018-02-14T01:41:30.625Z,19.97
2018-02-14T01:43:58.142Z,29.63
2018-02-14T01:46:25.685Z,18.30
2018-02-14T01:48:53.284Z,19.33
2018-02-14T01:51:20.755Z,17.90
2018-02-14T01:53:48.465Z,21.30
2018-02-14T01:56:15.929Z,20.40
2018-02-14T01:58:43.598Z,18.97
2018-02-14T02:01:11.109Z,16.83
2018-02-14T02:03:38.586Z,20.83
2018-02-14T02:06:06.078Z,16.13
2018-02-14T02:08:33.545Z,19.40
2018-02-14T02:11:01.048Z,20.47
2018-02-14T02:13:28.783Z,19.77
2018-02-14T02:15:56.503Z,18.83
2018-02-14T02:18:23.970Z,15.73
2018-02-14T02:20:51.785Z,22.67
2018-02-14T02:23:19.242Z,19.83
2018-02-14T02:25:46.980Z,15.83
2018-02-14T02:28:14.658Z,18.50
2018-02-14T02:30:42.115Z,22.70
2018-02-14T02:33:09.581Z,20.13
2018-02-14T02:35:37.973Z,17.23
2018-02-14T02:38:05.486Z,16.60
2018-02-14T02:40:33.165Z,22.43
2018-02-14T02:43:00.635Z,22.13
2018-02-14T02:45:28.401Z,20.43
2018-02-14T02:47:55.903Z,19.00
2018-02-14T02:50:23.406Z,18.57
2018-02-14T02:52:51.146Z,18.97
2018-02-14T02:55:18.912Z,18.77
2018-02-14T02:57:46.365Z,16.37
2018-02-14T03:00:13.840Z,26.53
2018-02-14T03:02:42.094Z,16.37
2018-02-14T03:05:09.596Z,17.10
2018-02-14T03:07:37.080Z,17.80
2018-02-14T03:10:04.754Z,19.23
2018-02-14T03:12:32.484Z,16.30
2018-02-14T03:14:59.974Z,20.17
2018-02-14T03:17:27.449Z,15.93
2018-02-14T03:19:54.914Z,16.70
2018-02-14T03:22:22.387Z,17.27
2018-02-14T03:24:49.884Z,16.40
2018-02-14T03:27:17.336Z,15.90
2018-02-14T03:29:44.866Z,14.97
2018-02-14T03:32:12.601Z,19.67
2018-02-14T03:34:40.145Z,17.17
2018-02-14T03:37:07.727Z,17.53
2018-02-14T03:39:35.280Z,15.47
2018-02-14T03:42:02.922Z,15.80
2018-02-14T03:44:30.401Z,18.70
2018-02-14T03:46:57.917Z,17.47
2018-02-14T03:49:25.401Z,20.50
2018-02-14T03:51:52.873Z,17.23
2018-02-14T03:54:20.335Z,19.17
2018-02-14T03:56:48.038Z,15.87
2018-02-14T03:59:15.518Z,16.17
2018-02-14T04:01:43.315Z,18.97
2018-02-14T04:04:10.941Z,16.83
2018-02-14T04:06:38.482Z,16.27
2018-02-14T04:09:05.938Z,19.87
2018-02-14T04:11:33.409Z,18.00
2018-02-14T04:14:00.862Z,20.73
2018-02-14T04:16:28.366Z,17.30
2018-02-14T04:18:56.112Z,16.13
2018-02-14T04:21:23.835Z,19.70
2018-02-14T04:23:51.326Z,18.73
2018-02-14T04:26:18.839Z,19.70
2018-02-14T04:28:46.638Z,15.30
2018-02-14T04:31:14.105Z,19.20
2018-02-14T04:33:41.594Z,16.23
2018-02-14T04:36:10.206Z,16.70
2018-02-14T04:38:37.795Z,20.27
2018-02-14T04:41:05.298Z,17.73
2018-02-14T04:43:32.826Z,17.77
2018-02-14T04:46:01.586Z,22.63
2018-02-14T04:48:29.082Z,24.23
2018-02-14T04:50:56.558Z,26.87
2018-02-14T04:53:25.138Z,26.53
2018-02-14T04:55:52.646Z,20.50
2018-02-14T04:58:20.228Z,20.00
2018-02-14T05:00:47.720Z,21.20
2018-02-14T05:03:15.259Z,22.67
2018-02-14T05:05:42.816Z,17.63
2018-02-14T05:08:10.274Z,18.93
2018-02-14T05:10:38.522Z,24.70
2018-02-14T05:13:05.994Z,27.37
2018-02-14T05:15:33.644Z,24.23
2018-02-14T05:18:01.160Z,19.53
2018-02-14T05:20:28.660Z,26.87
2018-02-14T05:22:56.235Z,31.80
2018-02-14T05:25:23.795Z,21.47
2018-02-14T05:27:51.355Z,21.87
2018-02-14T05:30:18.995Z,27.20
2018-02-14T05:32:46.502Z,32.47
2018-02-14T05:35:14.647Z,27.43
2018-02-14T05:37:42.401Z,27.50
2018-02-14T05:40:09.884Z,25.23
2018-02-14T05:42:37.617Z,22.57
2018-02-14T05:45:05.091Z,26.40
2018-02-14T05:47:32.774Z,20.17
2018-02-14T05:50:00.254Z,27.10
2018-02-14T05:52:27.731Z,25.33
2018-02-14T05:54:55.189Z,25.30
2018-02-14T05:57:22.661Z,36.60
2018-02-14T05:59:50.121Z,26.00
2018-02-14T06:02:17.598Z,35.23
2018-02-14T06:04:45.051Z,31.07
2018-02-14T06:07:12.806Z,36.87
2018-02-14T06:09:40.264Z,39.73
2018-02-14T06:12:07.776Z,22.43
2018-02-14T06:14:35.523Z,23.87
2018-02-14T06:17:03.243Z,21.83
2018-02-14T06:19:31.005Z,28.00
2018-02-14T06:21:58.788Z,19.97
2018-02-14T06:24:26.526Z,19.33
2018-02-14T06:26:57.726Z,21.53
2018-02-14T06:29:25.327Z,20.00
2018-02-14T06:31:52.787Z,19.33
2018-02-14T06:34:20.245Z,21.80
2018-02-14T06:36:47.720Z,23.47
2018-02-14T06:39:15.175Z,20.60
2018-02-14T06:41:43.641Z,21.53
2018-02-14T06:44:11.125Z,20.57
2018-02-14T06:46:38.577Z,25.77
2018-02-14T06:49:06.064Z,26.47
2018-02-14T06:51:33.682Z,20.50
2018-02-14T06:54:01.230Z,23.17
2018-02-14T06:56:28.890Z,31.97
2018-02-14T06:58:56.354Z,19.20
2018-02-14T07:01:24.578Z,19.97
2018-02-14T07:03:52.299Z,21.37
2018-02-14T07:06:20.091Z,29.20
2018-02-14T07:08:47.559Z,27.53
2018-02-14T07:11:15.175Z,27.87
2018-02-14T07:13:42.642Z,30.47
2018-02-14T07:16:10.099Z,19.63
2018-02-14T07:18:37.646Z,31.07
2018-02-14T07:21:05.101Z,20.73
2018-02-14T07:23:32.577Z,21.10
2018-02-14T07:26:00.801Z,26.40
2018-02-14T07:28:28.313Z,28.57
2018-02-14T07:30:55.774Z,25.30
2018-02-14T07:33:23.257Z,25.17
2018-02-14T07:35:50.722Z,31.63
2018-02-14T07:38:18.225Z,22.23
2018-02-14T07:40:45.990Z,26.00
2018-02-14T07:43:13.746Z,21.80
2018-02-14T07:45:41.514Z,23.60
2018-02-14T07:48:09.031Z,28.53
2018-02-14T07:50:36.733Z,38.00
2018-02-14T07:53:04.197Z,24.23
2018-02-14T07:55:31.671Z,24.37
2018-02-14T07:57:59.438Z,25.17
2018-02-14T08:00:27.787Z,28.37
2018-02-14T08:02:55.245Z,28.87
2018-02-14T08:05:23.167Z,26.90
2018-02-14T08:07:50.622Z,25.57
2018-02-14T08:10:18.227Z,28.03
2018-02-14T08:12:45.685Z,26.23
2018-02-14T08:15:13.157Z,27.33
2018-02-14T08:17:40.614Z,29.27
2018-02-14T08:20:08.275Z,25.10
2018-02-14T08:22:35.761Z,32.83
2018-02-14T08:25:03.229Z,33.00
2018-02-14T08:27:30.738Z,33.73
2018-02-14T08:29:58.199Z,30.67
2018-02-14T08:32:25.856Z,36.33
2018-02-14T08:34:53.475Z,30.40
2018-02-14T08:37:20.938Z,32.63
2018-02-14T08:39:48.494Z,31.13
2018-02-14T08:42:15.961Z,26.77
2018-02-14T08:44:43.447Z,32.17
2018-02-14T08:47:10.957Z,28.13
2018-02-14T08:49:38.444Z,33.20
2018-02-14T08:52:05.894Z,31.10
2018-02-14T08:54:33.642Z,29.33
2018-02-14T08:57:01.102Z,31.43
2018-02-14T08:59:29.505Z,30.00
2018-02-14T09:01:56.980Z,30.10
2018-02-14T09:04:24.437Z,26.53
2018-02-14T09:06:51.937Z,26.13
2018-02-14T09:09:19.394Z,30.20
2018-02-14T09:11:46.855Z,22.40
2018-02-14T09:14:14.329Z,26.17
2018-02-14T09:16:42.015Z,29.60
2018-02-14T09:19:09.482Z,25.37
2018-02-14T09:21:36.943Z,31.70
2018-02-14T09:24:04.400Z,30.10
2018-02-14T09:26:31.868Z,25.90
2018-02-14T09:28:59.314Z,22.97
2018-02-14T09:31:27.006Z,23.07
2018-02-14T09:33:54.508Z,29.27
2018-02-14T09:36:21.982Z,30.20
2018-02-14T09:38:49.633Z,29.67
2018-02-14T09:41:17.089Z,25.03
2018-02-14T09:43:44.546Z,26.83
2018-02-14T09:46:12.014Z,25.47
2018-02-14T09:48:39.485Z,22.73
2018-02-14T09:51:06.925Z,32.47
2018-02-14T09:53:34.402Z,26.10
2018-02-14T09:56:01.854Z,28.47
2018-02-14T09:58:29.342Z,26.40
2018-02-14T10:00:56.800Z,32.40
2018-02-14T10:03:24.264Z,21.70
2018-02-14T10:05:51.719Z,26.80
2018-02-14T10:08:19.194Z,26.00
2018-02-14T10:10:46.650Z,28.10
2018-02-14T10:13:14.110Z,25.70
2018-02-14T10:15:41.566Z,26.60
2018-02-14T10:18:09.030Z,24.43
2018-02-14T10:20:36.485Z,24.60
2018-02-14T10:23:03.965Z,27.23
2018-02-14T10:25:31.409Z,27.93
2018-02-14T10:27:58.874Z,27.80
2018-02-14T10:30:26.330Z,28.97
2018-02-14T10:32:53.803Z,25.40
2018-02-14T10:35:21.250Z,32.57
2018-02-14T10:37:48.738Z,46.03
2018-02-14T10:40:16.366Z,38.27
2018-02-14T10:42:43.829Z,26.10
2018-02-14T10:45:11.315Z,25.63
2018-02-14T10:47:38.771Z,27.07
2018-02-14T10:50:06.227Z,24.70
2018-02-14T10:52:33.683Z,29.03
2018-02-14T10:55:01.143Z,31.03
2018-02-14T10:57:28.592Z,27.70
2018-02-14T10:59:56.062Z,27.10
2018-02-14T11:02:23.519Z,29.27
2018-02-14T11:04:56.693Z,27.90
2018-02-14T11:07:24.162Z,22.97
2018-02-14T11:09:51.634Z,24.07
2018-02-14T11:12:19.083Z,21.53
2018-02-14T11:14:46.542Z,19.37
2018-02-14T11:17:14.046Z,37.60
2018-02-14T11:19:41.553Z,26.07
2018-02-14T11:22:09.578Z,24.10
2018-02-14T11:24:37.050Z,24.13
2018-02-14T11:27:04.509Z,28.63
2018-02-14T11:29:31.991Z,22.87
2018-02-14T11:31:59.451Z,27.80
2018-02-14T11:34:26.910Z,24.57
2018-02-14T11:36:54.365Z,19.50
2018-02-14T11:39:21.829Z,23.53
2018-02-14T11:41:49.275Z,28.80
2018-02-14T11:44:16.806Z,44.87
2018-02-14T11:46:44.261Z,27.03
2018-02-14T11:49:11.722Z,25.20
2018-02-14T11:51:39.199Z,22.00
2018-02-14T11:54:06.658Z,23.37
2018-02-14T11:56:34.155Z,28.03
2018-02-14T11:59:01.602Z,23.27
2018-02-14T12:01:29.083Z,28.43
2018-02-14T12:03:56.567Z,22.10
2018-02-14T12:06:24.045Z,30.80
2018-02-14T12:08:51.489Z,27.57
2018-02-14T12:11:18.974Z,24.67
2018-02-14T12:13:46.430Z,23.50
2018-02-14T12:16:13.894Z,21.53
2018-02-14T12:18:41.351Z,28.47
2018-02-14T12:21:08.816Z,24.77
2018-02-14T12:23:36.286Z,16.40
2018-02-14T12:26:03.761Z,23.53
2018-02-14T12:28:31.212Z,19.23
2018-02-14T12:30:58.678Z,30.77
2018-02-14T12:33:26.169Z,27.63
2018-02-14T12:35:53.636Z,16.17
2018-02-14T12:38:21.095Z,21.13
2018-02-14T12:40:48.554Z,22.77
2018-02-14T12:43:16.024Z,19.00
2018-02-14T12:45:43.478Z,18.37
2018-02-14T12:48:10.935Z,18.50
2018-02-14T12:50:38.399Z,20.40
2018-02-14T12:53:05.863Z,18.57
2018-02-14T12:55:33.323Z,18.30
2018-02-14T12:58:00.804Z,18.60
2018-02-14T13:00:28.246Z,21.73
2018-02-14T13:02:55.716Z,22.90
2018-02-14T13:05:23.161Z,21.70
2018-02-14T13:07:50.627Z,18.13
2018-02-14T13:10:18.075Z,20.53
2018-02-14T13:12:45.543Z,17.67
2018-02-14T13:15:13.000Z,33.63
2018-02-14T13:17:40.455Z,17.23
2018-02-14T13:20:07.914Z,19.97
2018-02-14T13:22:35.438Z,17.93
2018-02-14T13:25:02.894Z,13.80
2018-02-14T13:27:30.354Z,14.10
2018-02-14T13:29:57.818Z,11.77
2018-02-14T13:32:25.278Z,15.73
2018-02-14T13:34:52.735Z,18.43
2018-02-14T13:37:20.242Z,17.67
2018-02-14T13:39:47.704Z,16.33
2018-02-14T13:42:15.158Z,12.67
2018-02-14T13:44:42.620Z,11.87
2018-02-14T13:47:10.084Z,16.00
2018-02-14T13:49:37.550Z,14.03
2018-02-14T13:52:05.022Z,13.93
2018-02-14T13:54:32.494Z,15.27
2018-02-14T13:56:59.948Z,11.60
2018-02-14T13:59:27.404Z,18.57
2018-02-14T14:01:54.858Z,20.07
2018-02-14T14:04:22.326Z,18.70
2018-02-14T14:06:49.790Z,16.27
2018-02-14T14:09:17.258Z,13.47
2018-02-14T14:11:46.346Z,13.73
2018-02-14T14:14:13.812Z,14.37
2018-02-14T14:16:41.267Z,16.53
2018-02-14T14:19:08.738Z,17.80
2018-02-14T14:21:36.194Z,14.90
2018-02-14T14:24:03.673Z,20.53
2018-02-14T14:26:31.130Z,20.90
2018-02-14T14:28:58.637Z,19.40
2018-02-14T14:31:26.094Z,18.87
2018-02-14T14:33:53.705Z,15.57
2018-02-14T14:36:21.160Z,17.97
2018-02-14T14:38:48.632Z,20.00
2018-02-14T14:41:16.094Z,15.33
2018-02-14T14:43:43.545Z,15.20
2018-02-14T14:46:10.999Z,16.37
2018-02-14T14:48:38.483Z,21.43
2018-02-14T14:51:05.922Z,16.53
2018-02-14T14:53:34.138Z,20.23
2018-02-14T14:56:02.545Z,17.33
2018-02-14T14:58:29.989Z,17.53
2018-02-14T15:00:57.457Z,16.43
2018-02-14T15:03:24.901Z,14.43
2018-02-14T15:05:52.396Z,19.43
2018-02-14T15:08:19.862Z,13.67
2018-02-14T15:10:47.322Z,15.47
2018-02-14T15:13:14.782Z,14.93
2018-02-14T15:15:42.256Z,13.67
2018-02-14T15:18:10.115Z,14.43
2018-02-14T15:20:37.594Z,22.60
2018-02-14T15:23:05.061Z,15.27
2018-02-14T15:25:32.520Z,15.80
2018-02-14T15:27:59.983Z,17.70
2018-02-14T15:30:27.449Z,18.70
2018-02-14T15:32:54.900Z,17.13
2018-02-14T15:35:22.368Z,18.87
2018-02-14T15:37:49.818Z,13.53
2018-02-14T15:40:17.303Z,14.23
2018-02-14T15:42:44.752Z,14.73
2018-02-14T15:45:12.209Z,14.97
2018-02-14T15:47:39.679Z,26.93
2018-02-14T15:50:07.125Z,16.47
2018-02-14T15:52:34.581Z,13.83
2018-02-14T15:55:02.071Z,18.00
2018-02-14T15:57:29.531Z,17.07
2018-02-14T15:59:57.004Z,19.37
2018-02-14T16:02:25.226Z,27.93
2018-02-14T16:04:52.731Z,35.87
2018-02-14T16:07:20.194Z,26.27
2018-02-14T16:09:47.643Z,28.47
2018-02-14T16:12:15.106Z,17.27
2018-02-14T16:14:42.569Z,20.30
2018-02-14T16:17:10.046Z,23.57
2018-02-14T16:19:37.506Z,21.07
2018-02-14T16:22:04.962Z,28.13
2018-02-14T16:24:32.430Z,19.13
2018-02-14T16:26:59.891Z,18.93
2018-02-14T16:29:27.342Z,25.20
2018-02-14T16:31:54.806Z,30.27
2018-02-14T16:34:22.266Z,26.10
2018-02-14T16:36:49.726Z,28.23
2018-02-14T16:39:17.179Z,20.63
2018-02-14T16:41:44.694Z,27.57
2018-02-14T16:44:12.905Z,25.03
2018-02-14T16:46:40.362Z,17.60
2018-02-14T16:49:07.826Z,24.90
2018-02-14T16:51:35.280Z,26.90
2018-02-14T16:54:02.742Z,16.47
2018-02-14T16:56:30.189Z,23.03
2018-02-14T16:58:57.679Z,26.67
2018-02-14T17:01:25.192Z,24.13
2018-02-14T17:03:52.650Z,26.33
2018-02-14T17:06:20.139Z,21.53
2018-02-14T17:08:47.604Z,23.97
2018-02-14T17:11:15.073Z,19.53
2018-02-14T17:13:42.533Z,19.33
2018-02-14T17:16:10.011Z,20.57
2018-02-14T17:18:38.235Z,21.97
2018-02-14T17:21:05.688Z,35.80
2018-02-14T17:23:33.177Z,25.50
2018-02-14T17:26:00.614Z,23.93
2018-02-14T17:28:28.165Z,29.07
2018-02-14T17:30:55.609Z,28.40
2018-02-14T17:33:23.076Z,29.57
2018-02-14T17:35:50.535Z,27.43
2018-02-14T17:38:18.001Z,29.50
2018-02-14T17:40:45.462Z,25.47
2018-02-14T17:43:12.940Z,23.87
2018-02-14T17:45:40.402Z,27.57
2018-02-14T17:48:08.648Z,22.33
2018-02-14T17:50:36.083Z,30.47
2018-02-14T17:53:03.573Z,26.97
2018-02-14T17:55:31.043Z,33.93
2018-02-14T17:57:58.854Z,26.43
2018-02-14T18:00:26.327Z,22.77
2018-02-14T18:02:53.794Z,23.93
2018-02-14T18:05:21.298Z,28.10
2018-02-14T18:07:49.566Z,32.43
2018-02-14T18:10:17.025Z,25.20
2018-02-14T18:12:44.613Z,25.77
2018-02-14T18:15:12.074Z,27.87
2018-02-14T18:17:39.533Z,24.70
2018-02-14T18:20:07.005Z,22.10
2018-02-14T18:22:34.445Z,29.23
2018-02-14T18:25:01.948Z,27.10
2018-02-14T18:27:29.398Z,29.57
2018-02-14T18:29:56.868Z,27.43
2018-02-14T18:32:24.327Z,29.20
2018-02-14T18:34:51.799Z,30.90
2018-02-14T18:37:19.257Z,28.87
2018-02-14T18:39:46.726Z,23.93
2018-02-14T18:42:14.182Z,29.20
2018-02-14T18:44:41.635Z,30.17
2018-02-14T18:47:09.093Z,37.03
2018-02-14T18:49:36.546Z,28.73
2018-02-14T18:52:04.015Z,29.37
2018-02-14T18:54:31.466Z,34.57
2018-02-14T18:56:58.938Z,26.53
2018-02-14T18:59:26.410Z,30.17
2018-02-14T19:01:53.878Z,43.03
2018-02-14T19:04:21.511Z,25.80
2018-02-14T19:06:48.969Z,28.83
2018-02-14T19:09:16.436Z,32.03
2018-02-14T19:11:44.613Z,32.20
2018-02-14T19:14:12.074Z,33.67
2018-02-14T19:16:39.547Z,37.50
2018-02-14T19:19:07.027Z,36.63
2018-02-14T19:21:34.492Z,33.40
2018-02-14T19:24:02.536Z,32.97
2018-02-14T19:26:29.998Z,31.10
2018-02-14T19:28:57.454Z,36.83
2018-02-14T19:31:24.914Z,32.43
2018-02-14T19:33:52.377Z,35.33
2018-02-14T19:36:19.883Z,36.83
2018-02-14T19:38:47.332Z,39.80
2018-02-14T19:41:14.901Z,36.90
2018-02-14T19:43:42.374Z,40.63
2018-02-14T19:46:09.831Z,43.60
2018-02-14T19:48:37.306Z,42.00
2018-02-14T19:51:04.778Z,42.67
2018-02-14T19:53:32.239Z,32.53
2018-02-14T19:55:59.694Z,35.40
2018-02-14T19:58:27.206Z,37.50
2018-02-14T20:00:54.666Z,32.23
2018-02-14T20:03:22.174Z,34.20
2018-02-14T20:05:49.668Z,33.23
2018-02-14T20:08:17.135Z,37.40
2018-02-14T20:10:44.607Z,37.03
2018-02-14T20:13:12.088Z,40.83
2018-02-14T20:15:39.546Z,40.87
2018-02-14T20:18:07.027Z,44.00
2018-02-14T20:20:35.246Z,39.83
2018-02-14T20:23:02.715Z,41.57
2018-02-14T20:25:30.190Z,39.27
2018-02-14T20:27:57.953Z,42.33
2018-02-14T20:30:25.414Z,44.93
2018-02-14T20:32:53.007Z,40.80
2018-02-14T20:35:21.230Z,37.97
2018-02-14T20:37:48.713Z,42.77
2018-02-14T20:40:16.543Z,38.27
2018-02-14T20:42:44.130Z,38.30
2018-02-14T20:45:11.630Z,36.73
2018-02-14T20:47:39.082Z,39.53
2018-02-14T20:50:06.628Z,45.60
2018-02-14T20:52:34.085Z,39.50
2018-02-14T20:55:01.705Z,41.10
2018-02-14T20:57:29.178Z,37.90
2018-02-14T20:59:56.645Z,42.13
2018-02-14T21:02:24.093Z,43.20
2018-02-14T21:04:51.554Z,37.30
2018-02-14T21:07:19.123Z,38.67
2018-02-14T21:09:46.882Z,53.87
2018-02-14T21:12:14.384Z,49.10
2018-02-14T21:14:42.030Z,47.10
2018-02-14T21:17:09.553Z,47.90
2018-02-14T21:19:37.196Z,49.43
2018-02-14T21:22:04.650Z,44.07
2018-02-14T21:24:32.205Z,48.43
2018-02-14T21:26:59.689Z,41.27
2018-02-14T21:29:27.146Z,39.63
2018-02-14T21:31:54.940Z,43.30
2018-02-14T21:34:22.574Z,38.40
2018-02-14T21:36:50.084Z,35.43
2018-02-14T21:39:17.523Z,37.43
2018-02-14T21:41:45.008Z,36.63
2018-02-14T21:44:12.535Z,46.60
2018-02-14T21:46:40.266Z,41.33
2018-02-14T21:49:07.965Z,44.23
2018-02-14T21:51:35.478Z,41.00
2018-02-14T21:54:02.955Z,44.87
2018-02-14T21:56:30.615Z,50.37
2018-02-14T21:58:58.102Z,37.93
2018-02-14T22:01:25.640Z,34.50
2018-02-14T22:03:53.390Z,40.17
2018-02-14T22:06:21.051Z,35.43
2018-02-14T22:08:48.514Z,38.33
2018-02-14T22:11:15.989Z,40.90
2018-02-14T22:13:44.222Z,35.77
2018-02-14T22:16:11.686Z,36.43
2018-02-14T22:18:39.144Z,35.20
2018-02-14T22:21:06.612Z,35.17
2018-02-14T22:23:34.156Z,34.23
2018-02-14T22:26:01.658Z,33.67
2018-02-14T22:28:29.165Z,35.17
2018-02-14T22:30:57.290Z,33.70
2018-02-14T22:33:24.977Z,58.90
2018-02-14T22:35:52.483Z,39.93
2018-02-14T22:38:19.929Z,42.70
2018-02-14T22:40:47.498Z,41.83
2018-02-14T22:43:15.509Z,36.97
2018-02-14T22:45:43.098Z,35.80
2018-02-14T22:48:10.578Z,35.73
2018-02-14T22:50:38.043Z,38.60
2018-02-14T22:53:05.492Z,32.70
2018-02-14T22:55:32.957Z,36.67
2018-02-14T22:58:00.498Z,34.67
2018-02-14T23:00:28.866Z,31.53
2018-02-14T23:02:56.334Z,33.20
2018-02-14T23:05:23.983Z,29.60
2018-02-14T23:07:51.443Z,32.77
2018-02-14T23:10:19.001Z,29.33
2018-02-14T23:12:46.472Z,30.53
2018-02-14T23:15:13.931Z,35.33
2018-02-14T23:17:41.404Z,34.80
2018-02-14T23:20:09.150Z,38.73
2018-02-14T23:22:36.593Z,50.53
2018-02-14T23:25:04.398Z,40.57
2018-02-14T23:27:32.137Z,44.07
2018-02-14T23:29:59.925Z,39.80
2018-02-14T23:32:27.379Z,37.10
2018-02-14T23:34:55.042Z,41.43
2018-02-14T23:37:22.558Z,31.40
2018-02-14T23:39:50.029Z,35.80
2018-02-14T23:42:17.706Z,35.37
2018-02-14T23:44:45.173Z,38.83
2018-02-14T23:47:12.649Z,36.40
2018-02-14T23:49:40.089Z,31.70
2018-02-14T23:52:07.549Z,36.10
2018-02-14T23:54:35.011Z,33.80
2018-02-14T23:57:02.485Z,33.70
2018-02-14T23:59:29.976Z,36.80
